createdAt,value
2018-09-12T00:02:27.136Z,8.30
2018-09-12T00:04:56.284Z,10.33
2018-09-12T00:07:24.940Z,9.47
2018-09-12T00:09:54.128Z,10.07
2018-09-12T00:12:22.852Z,8.60
2018-09-12T00:14:51.272Z,8.97
2018-09-12T00:17:20.343Z,6.40
2018-09-12T00:19:49.040Z,5.70
2018-09-12T00:22:18.208Z,6.57
2018-09-12T00:24:48.447Z,8.50
2018-09-12T00:27:17.580Z,7.23
2018-09-12T00:29:47.458Z,7.30
2018-09-12T00:32:16.840Z,5.77
2018-09-12T00:34:46.072Z,9.57
2018-09-12T00:37:14.688Z,5.23
2018-09-12T00:39:43.745Z,7.63
2018-09-12T00:42:13.124Z,7.60
2018-09-12T00:44:42.145Z,6.90
2018-09-12T00:47:11.475Z,8.00
2018-09-12T00:49:40.674Z,10.03
2018-09-12T00:52:09.565Z,7.17
2018-09-12T00:54:38.811Z,8.27
2018-09-12T00:57:07.536Z,9.23
2018-09-12T00:59:36.484Z,6.47
2018-09-12T01:02:05.248Z,6.07
2018-09-12T01:04:33.869Z,7.00
2018-09-12T01:07:02.896Z,8.53
2018-09-12T01:09:32.948Z,8.67
2018-09-12T01:12:02.457Z,6.67
2018-09-12T01:14:31.674Z,5.40
2018-09-12T01:17:00.827Z,7.83
2018-09-12T01:19:30.261Z,6.50
2018-09-12T01:21:58.883Z,6.67
2018-09-12T01:24:28.129Z,9.90
2018-09-12T01:26:57.900Z,9.07
2018-09-12T01:29:27.683Z,6.87
2018-09-12T01:31:56.677Z,5.27
2018-09-12T01:34:25.952Z,6.67
2018-09-12T01:36:55.215Z,5.87
2018-09-12T01:39:24.380Z,10.17
2018-09-12T01:41:53.664Z,6.63
2018-09-12T01:44:22.702Z,6.47
2018-09-12T01:46:51.488Z,4.43
2018-09-12T01:49:20.606Z,6.40
2018-09-12T01:51:49.978Z,7.93
2018-09-12T01:54:19.823Z,4.70
2018-09-12T01:56:48.698Z,6.57
2018-09-12T01:59:17.676Z,4.20
2018-09-12T02:01:47.217Z,6.27
2018-09-12T02:04:16.621Z,5.60
2018-09-12T02:06:46.161Z,5.83
2018-09-12T02:09:15.780Z,6.17
2018-09-12T02:11:45.482Z,3.87
2018-09-12T02:14:14.860Z,16.33
2018-09-12T02:16:44.187Z,6.63
2018-09-12T02:19:13.151Z,9.80
2018-09-12T02:21:42.365Z,6.73
2018-09-12T02:24:11.263Z,9.67
2018-09-12T02:26:40.352Z,6.43
2018-09-12T02:29:09.284Z,7.17
2018-09-12T02:31:38.305Z,7.27
2018-09-12T02:34:07.368Z,5.37
2018-09-12T02:36:36.000Z,7.40
2018-09-12T02:39:07.924Z,5.43
2018-09-12T02:41:37.008Z,4.20
2018-09-12T02:44:06.727Z,6.03
2018-09-12T02:46:35.831Z,8.47
2018-09-12T02:49:04.610Z,6.57
2018-09-12T02:51:33.632Z,12.80
2018-09-12T02:54:02.476Z,5.60
2018-09-12T02:56:31.713Z,7.47
2018-09-12T02:59:00.716Z,8.50
2018-09-12T03:01:29.656Z,9.63
2018-09-12T03:03:59.100Z,4.20
2018-09-12T03:06:28.534Z,8.30
2018-09-12T03:08:58.077Z,4.90
2018-09-12T03:11:27.104Z,8.23
2018-09-12T03:13:56.790Z,8.30
2018-09-12T03:16:26.490Z,9.63
2018-09-12T03:18:54.916Z,6.70
2018-09-12T03:21:23.688Z,12.23
2018-09-12T03:23:52.334Z,8.67
2018-09-12T03:26:21.363Z,6.90
2018-09-12T03:28:50.376Z,7.23
2018-09-12T03:31:19.306Z,4.47
2018-09-12T03:33:47.969Z,7.20
2018-09-12T03:36:17.032Z,7.80
2018-09-12T03:38:46.136Z,6.50
2018-09-12T03:41:15.080Z,6.97
2018-09-12T03:43:43.900Z,6.23
2018-09-12T03:46:13.163Z,7.83
2018-09-12T03:48:42.068Z,4.90
2018-09-12T03:51:10.922Z,8.20
2018-09-12T03:53:40.536Z,7.93
2018-09-12T03:56:09.644Z,6.23
2018-09-12T03:58:38.978Z,6.97
2018-09-12T04:01:08.201Z,11.60
2018-09-12T04:03:37.396Z,8.20
2018-09-12T04:06:06.413Z,8.10
2018-09-12T04:08:36.292Z,9.33
2018-09-12T04:11:05.558Z,10.80
2018-09-12T04:13:34.759Z,8.70
2018-09-12T04:16:04.356Z,8.40
2018-09-12T04:18:33.489Z,8.47
2018-09-12T04:21:02.376Z,7.40
2018-09-12T04:23:31.432Z,7.50
2018-09-12T04:26:00.638Z,8.37
2018-09-12T04:28:29.360Z,7.30
2018-09-12T04:30:58.129Z,8.27
2018-09-12T04:33:29.072Z,8.63
2018-09-12T04:35:58.290Z,8.13
2018-09-12T04:38:27.086Z,12.80
2018-09-12T04:40:55.804Z,9.70
2018-09-12T04:43:24.957Z,7.07
2018-09-12T04:45:53.869Z,10.47
2018-09-12T04:48:23.352Z,8.17
2018-09-12T04:50:52.247Z,11.33
2018-09-12T04:53:20.984Z,10.80
2018-09-12T04:55:50.465Z,8.50
2018-09-12T04:58:19.740Z,10.23
2018-09-12T05:00:48.760Z,10.97
2018-09-12T05:03:17.778Z,7.93
2018-09-12T05:05:46.412Z,12.73
2018-09-12T05:08:15.165Z,10.13
2018-09-12T05:10:44.140Z,13.77
2018-09-12T05:13:13.036Z,9.17
2018-09-12T05:15:42.312Z,8.67
2018-09-12T05:18:11.255Z,10.03
2018-09-12T05:20:40.624Z,9.90
2018-09-12T05:23:09.720Z,11.37
2018-09-12T05:25:38.789Z,8.50
2018-09-12T05:28:07.740Z,7.67
2018-09-12T05:30:36.431Z,11.33
2018-09-12T05:33:05.176Z,7.67
2018-09-12T05:35:34.491Z,11.67
2018-09-12T05:38:03.524Z,9.87
2018-09-12T05:40:32.239Z,6.00
2018-09-12T05:43:01.677Z,9.17
2018-09-12T05:45:31.439Z,11.20
2018-09-12T05:48:00.708Z,9.60
2018-09-12T05:52:53.779Z,11.47
2018-09-12T05:55:23.807Z,11.33
2018-09-12T05:57:52.340Z,7.70
2018-09-12T06:00:22.732Z,8.37
2018-09-12T06:02:51.656Z,11.30
2018-09-12T06:05:20.824Z,9.33
2018-09-12T06:07:49.928Z,10.67
2018-09-12T06:10:18.956Z,8.83
2018-09-12T06:12:47.952Z,10.20
2018-09-12T06:15:18.769Z,15.37
2018-09-12T06:17:48.681Z,11.10
2018-09-12T06:20:17.801Z,19.17
2018-09-12T06:22:47.600Z,11.53
2018-09-12T06:25:16.741Z,8.00
2018-09-12T06:27:45.474Z,12.40
2018-09-12T06:30:14.820Z,10.43
2018-09-12T06:32:44.400Z,12.73
2018-09-12T06:35:13.340Z,12.80
2018-09-12T06:37:43.133Z,9.00
2018-09-12T06:40:12.120Z,11.27
2018-09-12T06:42:41.645Z,11.83
2018-09-12T06:45:10.352Z,7.03
2018-09-12T06:47:39.444Z,8.37
2018-09-12T06:50:08.419Z,8.73
2018-09-12T06:52:37.076Z,10.07
2018-09-12T06:55:06.532Z,8.43
2018-09-12T06:57:35.712Z,10.43
2018-09-12T07:00:05.080Z,10.07
2018-09-12T07:02:33.827Z,11.93
2018-09-12T07:05:03.112Z,11.23
2018-09-12T07:07:32.501Z,10.20
2018-09-12T07:10:01.923Z,10.87
2018-09-12T07:12:31.124Z,5.97
2018-09-12T07:15:00.124Z,10.57
2018-09-12T07:17:29.347Z,9.23
2018-09-12T07:19:58.452Z,6.37
2018-09-12T07:22:27.422Z,7.27
2018-09-12T07:24:56.200Z,10.83
2018-09-12T07:27:25.672Z,7.97
2018-09-12T07:29:54.848Z,9.97
2018-09-12T07:32:23.944Z,7.83
2018-09-12T07:34:53.264Z,8.53
2018-09-12T07:37:22.237Z,8.90
2018-09-12T07:39:51.353Z,8.63
2018-09-12T07:42:20.380Z,10.67
2018-09-12T07:44:49.727Z,11.77
2018-09-12T07:47:18.751Z,9.87
2018-09-12T07:49:48.124Z,8.17
2018-09-12T07:52:16.744Z,6.17
2018-09-12T07:54:46.288Z,8.60
2018-09-12T07:57:15.656Z,8.83
2018-09-12T07:59:44.401Z,12.10
2018-09-12T08:02:13.835Z,8.60
2018-09-12T08:04:43.427Z,10.10
2018-09-12T08:07:12.448Z,7.17
2018-09-12T08:09:41.368Z,7.23
2018-09-12T08:12:10.427Z,9.40
2018-09-12T08:14:39.882Z,7.03
2018-09-12T08:17:09.280Z,8.20
2018-09-12T08:19:37.965Z,9.90
2018-09-12T08:22:06.904Z,9.57
2018-09-12T08:24:36.064Z,5.27
2018-09-12T08:27:05.084Z,6.83
2018-09-12T08:29:34.430Z,7.20
2018-09-12T08:32:03.710Z,9.50
2018-09-12T08:34:33.880Z,10.37
2018-09-12T08:37:03.385Z,9.27
2018-09-12T08:39:33.317Z,7.77
2018-09-12T08:42:02.438Z,8.53
2018-09-12T08:44:31.525Z,7.47
2018-09-12T08:46:59.972Z,10.63
2018-09-12T08:49:29.230Z,5.47
2018-09-12T08:51:58.193Z,8.20
2018-09-12T08:54:27.118Z,10.07
2018-09-12T08:57:00.500Z,12.73
2018-09-12T08:59:30.057Z,11.73
2018-09-12T09:02:00.025Z,9.03
2018-09-12T09:04:28.844Z,10.23
2018-09-12T09:06:58.029Z,8.80
2018-09-12T09:09:27.312Z,13.63
2018-09-12T09:11:56.348Z,6.93
2018-09-12T09:14:26.298Z,7.63
2018-09-12T09:16:55.347Z,9.83
2018-09-12T09:19:24.316Z,10.20
2018-09-12T09:21:53.841Z,8.90
2018-09-12T09:24:23.244Z,6.17
2018-09-12T09:26:53.348Z,10.20
2018-09-12T09:29:22.014Z,7.47
2018-09-12T09:31:51.216Z,10.43
2018-09-12T09:34:20.552Z,6.57
2018-09-12T09:36:49.652Z,5.23
2018-09-12T09:39:18.716Z,6.70
2018-09-12T09:41:47.657Z,4.83
2018-09-12T09:44:16.601Z,6.57
2018-09-12T09:46:45.619Z,6.27
2018-09-12T09:49:14.856Z,5.77
2018-09-12T09:51:43.977Z,5.10
2018-09-12T09:54:12.971Z,9.23
2018-09-12T09:56:41.770Z,7.07
2018-09-12T09:59:11.155Z,3.27
2018-09-12T10:01:45.416Z,6.93
2018-09-12T10:04:19.612Z,4.77
2018-09-12T10:06:54.436Z,5.17
2018-09-12T10:09:30.398Z,7.13
2018-09-12T10:12:00.011Z,4.37
2018-09-12T10:14:29.213Z,5.90
2018-09-12T10:16:57.840Z,5.90
2018-09-12T10:19:26.790Z,2.93
2018-09-12T10:21:55.533Z,4.57
2018-09-12T10:24:25.159Z,5.27
2018-09-12T10:26:54.293Z,3.20
2018-09-12T10:29:23.181Z,5.60
2018-09-12T10:31:52.008Z,7.57
2018-09-12T10:34:24.748Z,8.30
2018-09-12T10:36:53.841Z,6.10
2018-09-12T10:39:22.872Z,5.83
2018-09-12T10:41:52.284Z,7.43
2018-09-12T10:44:21.062Z,4.70
2018-09-12T10:46:49.703Z,6.17
2018-09-12T10:49:19.200Z,6.33
2018-09-12T10:51:48.507Z,4.90
2018-09-12T10:54:17.749Z,8.60
2018-09-12T10:56:46.652Z,4.03
2018-09-12T10:59:16.465Z,7.73
2018-09-12T11:01:45.908Z,4.90
2018-09-12T11:04:14.722Z,5.93
2018-09-12T11:06:43.545Z,3.53
2018-09-12T11:09:14.314Z,6.37
2018-09-12T11:11:43.360Z,5.87
2018-09-12T11:14:11.945Z,5.13
2018-09-12T11:16:41.298Z,7.17
2018-09-12T11:19:10.204Z,9.57
2018-09-12T11:21:39.254Z,4.97
2018-09-12T11:24:08.393Z,5.93
2018-09-12T11:26:37.130Z,7.33
2018-09-12T11:29:06.191Z,3.93
2018-09-12T11:31:35.092Z,4.80
2018-09-12T11:34:04.633Z,4.93
2018-09-12T11:36:34.045Z,5.67
2018-09-12T11:39:03.408Z,7.13
2018-09-12T11:41:32.793Z,3.87
2018-09-12T11:44:02.097Z,5.03
2018-09-12T11:46:31.157Z,2.83
2018-09-12T11:49:00.862Z,4.10
2018-09-12T11:51:29.924Z,2.27
2018-09-12T11:53:59.219Z,3.80
2018-09-12T11:56:27.946Z,6.37
2018-09-12T11:58:56.632Z,3.73
2018-09-12T12:01:25.407Z,7.77
2018-09-12T12:03:54.284Z,6.50
2018-09-12T12:06:24.101Z,1.37
2018-09-12T12:08:52.915Z,2.20
2018-09-12T12:11:22.105Z,5.03
2018-09-12T12:13:51.356Z,3.93
2018-09-12T12:16:21.811Z,4.17
2018-09-12T12:18:51.163Z,5.00
2018-09-12T12:21:20.452Z,5.13
2018-09-12T12:23:50.101Z,3.63
2018-09-12T12:26:19.753Z,5.73
2018-09-12T12:28:49.290Z,3.47
2018-09-12T12:31:18.207Z,6.07
2018-09-12T12:33:47.477Z,2.97
2018-09-12T12:36:16.472Z,3.73
2018-09-12T12:38:45.441Z,2.92
2018-09-12T12:41:14.532Z,5.37
2018-09-12T12:43:43.850Z,3.17
2018-09-12T12:46:12.440Z,5.20
2018-09-12T12:48:41.505Z,4.97
2018-09-12T12:51:10.680Z,4.13
2018-09-12T12:53:39.859Z,3.97
2018-09-12T12:56:09.187Z,3.73
2018-09-12T12:58:38.114Z,4.83
2018-09-12T13:01:07.228Z,6.80
2018-09-12T13:03:36.376Z,3.23
2018-09-12T13:06:05.554Z,8.43
2018-09-12T13:08:35.022Z,4.80
2018-09-12T13:11:04.636Z,4.73
2018-09-12T13:13:33.820Z,6.57
2018-09-12T13:16:03.628Z,8.23
2018-09-12T13:18:32.396Z,4.40
2018-09-12T13:21:01.589Z,5.50
2018-09-12T13:23:30.601Z,3.83
2018-09-12T13:25:59.360Z,4.67
2018-09-12T13:28:28.352Z,6.73
2018-09-12T13:30:58.001Z,3.27
2018-09-12T13:33:26.580Z,4.40
2018-09-12T13:35:55.436Z,2.80
2018-09-12T13:38:24.604Z,4.60
2018-09-12T13:40:53.549Z,4.10
2018-09-12T13:43:22.581Z,3.40
2018-09-12T13:45:51.949Z,7.03
2018-09-12T13:48:20.797Z,3.03
2018-09-12T13:50:50.016Z,2.50
2018-09-12T13:53:18.896Z,2.97
2018-09-12T13:55:47.580Z,3.73
2018-09-12T13:58:16.659Z,2.23
2018-09-12T14:00:46.444Z,4.67
2018-09-12T14:03:15.539Z,5.57
2018-09-12T14:05:44.784Z,2.77
2018-09-12T14:08:14.110Z,3.07
2018-09-12T14:10:43.928Z,4.33
2018-09-12T14:13:12.344Z,2.83
2018-09-12T14:15:41.476Z,3.20
2018-09-12T14:18:10.389Z,3.50
2018-09-12T14:20:39.484Z,3.65
2018-09-12T14:23:08.241Z,5.37
2018-09-12T14:25:37.260Z,3.52
2018-09-12T14:28:07.177Z,3.02
2018-09-12T14:30:35.892Z,4.93
2018-09-12T14:33:05.080Z,3.50
2018-09-12T14:35:34.057Z,3.30
2018-09-12T14:38:03.015Z,2.87
2018-09-12T14:40:31.991Z,4.60
2018-09-12T14:43:00.728Z,3.00
2018-09-12T14:45:29.964Z,3.90
2018-09-12T14:47:58.695Z,3.33
2018-09-12T14:50:27.912Z,3.10
2018-09-12T14:52:56.976Z,3.33
2018-09-12T14:55:26.039Z,6.57
2018-09-12T14:57:55.514Z,4.03
2018-09-12T15:00:32.216Z,3.50
2018-09-12T15:03:01.656Z,3.80
2018-09-12T15:05:30.162Z,7.00
2018-09-12T15:07:59.326Z,3.57
2018-09-12T15:10:28.487Z,4.00
2018-09-12T15:12:57.732Z,2.97
2018-09-12T15:15:26.973Z,6.40
2018-09-12T15:17:56.038Z,7.23
2018-09-12T15:20:24.756Z,2.70
2018-09-12T15:22:53.791Z,5.33
2018-09-12T15:25:23.031Z,4.73
2018-09-12T15:27:51.932Z,4.07
2018-09-12T15:30:21.052Z,8.90
2018-09-12T15:32:50.032Z,1.93
2018-09-12T15:35:20.032Z,3.53
2018-09-12T15:37:49.420Z,2.17
2018-09-12T15:40:18.653Z,1.43
2018-09-12T15:42:48.056Z,4.17
2018-09-12T15:45:17.112Z,5.13
2018-09-12T15:47:46.595Z,3.63
2018-09-12T15:50:15.788Z,2.90
2018-09-12T15:52:45.110Z,2.87
2018-09-12T15:55:14.185Z,2.77
2018-09-12T15:57:42.868Z,4.17
2018-09-12T16:00:12.164Z,2.23
2018-09-12T16:02:42.602Z,6.40
2018-09-12T16:05:11.736Z,5.00
2018-09-12T16:07:41.204Z,4.77
2018-09-12T16:10:10.209Z,3.60
2018-09-12T16:12:39.584Z,1.97
2018-09-12T16:15:08.603Z,3.80
2018-09-12T16:17:37.412Z,6.57
2018-09-12T16:20:06.732Z,2.77
2018-09-12T16:22:35.963Z,3.10
2018-09-12T16:25:05.177Z,3.50
2018-09-12T16:27:34.336Z,3.70
2018-09-12T16:30:03.233Z,6.03
2018-09-12T16:32:32.779Z,3.67
2018-09-12T16:35:01.695Z,5.20
2018-09-12T16:37:30.957Z,3.63
2018-09-12T16:40:00.247Z,2.47
2018-09-12T16:42:29.376Z,5.43
2018-09-12T16:44:58.485Z,7.00
2018-09-12T16:47:28.961Z,4.40
2018-09-12T16:49:58.428Z,6.90
2018-09-12T16:52:27.748Z,3.97
2018-09-12T16:54:56.511Z,4.77
2018-09-12T16:57:25.584Z,4.53
2018-09-12T16:59:54.775Z,2.83
2018-09-12T17:02:24.615Z,4.90
2018-09-12T17:04:53.693Z,4.57
2018-09-12T17:07:23.000Z,5.47
2018-09-12T17:09:55.878Z,3.10
2018-09-12T17:12:25.011Z,3.73
2018-09-12T17:14:55.598Z,3.97
2018-09-12T17:17:25.776Z,3.67
2018-09-12T17:19:54.743Z,3.97
2018-09-12T17:22:25.365Z,2.63
2018-09-12T17:24:56.076Z,4.17
2018-09-12T17:27:26.199Z,7.03
2018-09-12T17:29:55.676Z,3.90
2018-09-12T17:32:24.764Z,4.30
2018-09-12T17:34:55.319Z,6.43
2018-09-12T17:37:27.420Z,2.77
2018-09-12T17:39:56.387Z,3.50
2018-09-12T17:42:26.459Z,6.07
2018-09-12T17:44:56.245Z,3.70
2018-09-12T17:47:26.164Z,4.47
2018-09-12T17:49:55.447Z,4.50
2018-09-12T17:55:01.137Z,4.73
2018-09-12T17:57:31.543Z,2.63
2018-09-12T18:00:01.231Z,2.50
2018-09-12T18:02:30.930Z,5.07
2018-09-12T18:05:00.040Z,3.83
2018-09-12T18:07:28.950Z,4.33
2018-09-12T18:09:58.124Z,6.67
2018-09-12T18:12:28.493Z,4.43
2018-09-12T18:14:59.064Z,3.80
2018-09-12T18:17:29.388Z,4.83
2018-09-12T18:19:58.356Z,5.10
2018-09-12T18:22:27.688Z,4.20
2018-09-12T18:24:57.950Z,5.00
2018-09-12T18:27:27.457Z,3.80
2018-09-12T18:29:56.762Z,4.83
2018-09-12T18:32:26.774Z,5.53
2018-09-12T18:34:57.419Z,4.87
2018-09-12T18:37:27.125Z,4.53
2018-09-12T18:39:57.618Z,3.03
2018-09-12T18:42:27.117Z,3.17
2018-09-12T18:44:56.997Z,2.87
2018-09-12T18:47:30.182Z,4.27
2018-09-12T18:49:59.856Z,5.90
2018-09-12T18:52:29.470Z,5.43
2018-09-12T18:54:59.243Z,3.20
2018-09-12T18:57:28.992Z,5.93
2018-09-12T18:59:58.867Z,3.07
2018-09-12T19:02:28.666Z,5.20
2018-09-12T19:04:58.847Z,5.90
2018-09-12T19:07:28.604Z,3.93
2018-09-12T19:09:59.226Z,5.03
2018-09-12T19:12:28.647Z,3.80
2018-09-12T19:14:58.008Z,3.83
2018-09-12T19:17:27.955Z,7.17
2018-09-12T19:19:57.429Z,5.27
2018-09-12T19:22:28.677Z,4.00
2018-09-12T19:24:58.640Z,6.83
2018-09-12T19:27:28.022Z,5.30
2018-09-12T19:29:57.669Z,4.30
2018-09-12T19:32:29.105Z,4.33
2018-09-12T19:34:58.793Z,5.07
2018-09-12T19:37:27.774Z,5.90
2018-09-12T19:39:57.900Z,5.80
2018-09-12T19:42:26.804Z,5.53
2018-09-12T19:44:56.307Z,4.00
2018-09-12T19:47:26.582Z,4.50
2018-09-12T19:49:56.614Z,6.07
2018-09-12T19:52:25.983Z,4.63
2018-09-12T19:54:59.387Z,4.77
2018-09-12T19:57:29.107Z,8.37
2018-09-12T19:59:59.048Z,3.33
2018-09-12T20:02:31.289Z,3.07
2018-09-12T20:05:01.549Z,8.27
2018-09-12T20:07:31.876Z,4.83
2018-09-12T20:10:02.455Z,5.67
2018-09-12T20:12:31.856Z,3.60
2018-09-12T20:15:02.433Z,2.13
2018-09-12T20:17:33.140Z,2.27
2018-09-12T20:20:02.335Z,5.03
2018-09-12T20:22:31.389Z,4.20
2018-09-12T20:25:01.337Z,2.93
2018-09-12T20:27:31.020Z,3.33
2018-09-12T20:30:01.257Z,6.60
2018-09-12T20:32:30.583Z,5.70
2018-09-12T20:35:00.241Z,4.40
2018-09-12T20:37:30.507Z,4.17
2018-09-12T20:40:00.150Z,3.57
2018-09-12T20:42:30.097Z,3.40
2018-09-12T20:44:59.521Z,5.10
2018-09-12T20:47:28.620Z,5.00
2018-09-12T20:49:59.919Z,3.97
2018-09-12T20:52:30.464Z,3.97
2018-09-12T20:54:58.781Z,7.73
2018-09-12T20:57:28.111Z,2.73
2018-09-12T20:59:57.092Z,4.67
2018-09-12T21:02:26.190Z,3.03
2018-09-12T21:04:54.986Z,4.10
2018-09-12T21:07:26.204Z,3.80
2018-09-12T21:09:55.445Z,3.70
2018-09-12T21:12:24.526Z,3.00
2018-09-12T21:14:53.260Z,5.37
2018-09-12T21:17:22.521Z,2.77
2018-09-12T21:19:51.812Z,5.13
2018-09-12T21:22:20.824Z,3.83
2018-09-12T21:24:50.080Z,5.63
2018-09-12T21:27:19.006Z,2.30
2018-09-12T21:29:48.111Z,6.73
2018-09-12T21:32:17.076Z,2.27
2018-09-12T21:34:46.504Z,4.30
2018-09-12T21:37:15.500Z,6.20
2018-09-12T21:39:44.804Z,4.53
2018-09-12T21:42:13.739Z,3.80
2018-09-12T21:44:42.518Z,3.87
2018-09-12T21:47:12.728Z,5.17
2018-09-12T21:49:42.282Z,4.97
2018-09-12T21:52:11.348Z,5.40
2018-09-12T21:54:40.367Z,3.77
2018-09-12T21:57:09.561Z,4.63
2018-09-12T21:59:38.642Z,3.70
2018-09-12T22:02:08.167Z,6.50
2018-09-12T22:04:37.400Z,3.80
2018-09-12T22:07:06.498Z,5.03
2018-09-12T22:09:35.729Z,4.73
2018-09-12T22:12:04.854Z,2.97
2018-09-12T22:14:33.643Z,3.63
2018-09-12T22:17:02.669Z,4.43
2018-09-12T22:19:32.237Z,3.57
2018-09-12T22:22:03.842Z,6.27
2018-09-12T22:24:33.248Z,6.17
2018-09-12T22:27:02.331Z,2.20
2018-09-12T22:29:31.312Z,4.37
2018-09-12T22:32:03.713Z,6.40
2018-09-12T22:34:32.500Z,4.00
2018-09-12T22:37:01.615Z,2.70
2018-09-12T22:39:30.563Z,5.70
2018-09-12T22:41:59.047Z,3.97
2018-09-12T22:44:27.970Z,3.73
2018-09-12T22:46:57.074Z,2.93
2018-09-12T22:49:26.292Z,1.80
2018-09-12T22:51:54.767Z,4.70
2018-09-12T22:54:24.843Z,3.33
2018-09-12T22:56:53.996Z,4.50
2018-09-12T22:59:22.999Z,12.30
2018-09-12T23:01:51.661Z,3.77
2018-09-12T23:04:20.600Z,2.13
2018-09-12T23:06:50.385Z,2.10
2018-09-12T23:09:19.054Z,4.00
2018-09-12T23:11:48.028Z,3.60
2018-09-12T23:14:16.970Z,3.70
2018-09-12T23:16:46.781Z,2.40
2018-09-12T23:19:16.354Z,4.80
2018-09-12T23:21:45.672Z,6.00
2018-09-12T23:24:14.828Z,3.33
2018-09-12T23:26:43.716Z,4.37
2018-09-12T23:29:12.533Z,3.83
2018-09-12T23:31:41.200Z,4.43
2018-09-12T23:34:10.349Z,4.47
2018-09-12T23:36:39.580Z,6.00
2018-09-12T23:39:12.509Z,6.33
2018-09-12T23:41:45.564Z,3.67
2018-09-12T23:44:14.648Z,6.93
2018-09-12T23:46:43.961Z,5.03
2018-09-12T23:49:13.516Z,3.40
2018-09-12T23:51:42.823Z,3.57
2018-09-12T23:54:12.623Z,3.40
2018-09-12T23:56:41.794Z,4.37
2018-09-12T23:59:11.085Z,8.13
